sensor_id;sensor_type;location;lat;lon;timestamp;pressure;altitude;pressure_sealevel;temperature;humidity
73245;BME280;61460;41.158;-73.238;2022-10-03T00:05:11;102247.08;;;22.50;54.04
73245;BME280;61460;41.158;-73.238;2022-10-03T00:07:42;102249.75;;;22.27;54.71
73245;BME280;61460;41.158;-73.238;2022-10-03T00:10:10;102247.08;;;22.36;54.39
73245;BME280;61460;41.158;-73.238;2022-10-03T00:12:45;102243.08;;;22.59;53.82
73245;BME280;61460;41.158;-73.238;2022-10-03T00:15:07;102243.28;;;22.73;53.73
73245;BME280;61460;41.158;-73.238;2022-10-03T00:17:42;102245.60;;;22.76;53.34
73245;BME280;61460;41.158;-73.238;2022-10-03T00:20:11;102238.39;;;22.71;53.39
73245;BME280;61460;41.158;-73.238;2022-10-03T00:22:41;102244.28;;;22.56;53.98
73245;BME280;61460;41.158;-73.238;2022-10-03T00:25:18;102255.07;;;22.93;52.79
73245;BME280;61460;41.158;-73.238;2022-10-03T00:27:39;102246.16;;;22.96;52.44
73245;BME280;61460;41.158;-73.238;2022-10-03T00:30:12;102241.50;;;22.64;53.05
73245;BME280;61460;41.158;-73.238;2022-10-03T00:35:19;102238.68;;;22.92;52.71
73245;BME280;61460;41.158;-73.238;2022-10-03T00:37:44;102237.51;;;23.26;51.70
73245;BME280;61460;41.158;-73.238;2022-10-03T00:40:25;102242.86;;;22.38;53.84
73245;BME280;61460;41.158;-73.238;2022-10-03T00:50:21;102278.61;;;22.92;52.29
73245;BME280;61460;41.158;-73.238;2022-10-03T00:52:54;102277.04;;;22.76;52.87
73245;BME280;61460;41.158;-73.238;2022-10-03T00:55:20;102278.78;;;22.78;52.77
73245;BME280;61460;41.158;-73.238;2022-10-03T00:57:55;102285.57;;;22.75;52.88
73245;BME280;61460;41.158;-73.238;2022-10-03T01:00:18;102290.37;;;22.67;52.79
73245;BME280;61460;41.158;-73.238;2022-10-03T01:05:22;102291.67;;;22.74;52.88
73245;BME280;61460;41.158;-73.238;2022-10-03T01:07:57;102283.98;;;23.11;51.84
73245;BME280;61460;41.158;-73.238;2022-10-03T01:10:19;102279.83;;;23.32;51.29
73245;BME280;61460;41.158;-73.238;2022-10-03T01:12:56;102272.48;;;23.31;51.07
73245;BME280;61460;41.158;-73.238;2022-10-03T01:15:24;102272.31;;;23.57;50.49
73245;BME280;61460;41.158;-73.238;2022-10-03T01:18:00;102284.98;;;23.16;51.32
73245;BME280;61460;41.158;-73.238;2022-10-03T01:20:25;102273.53;;;23.31;51.09
73245;BME280;61460;41.158;-73.238;2022-10-03T01:23:05;102280.60;;;23.57;50.40
73245;BME280;61460;41.158;-73.238;2022-10-03T01:25:29;102281.27;;;23.64;50.23
73245;BME280;61460;41.158;-73.238;2022-10-03T01:27:57;102278.85;;;23.58;50.26
73245;BME280;61460;41.158;-73.238;2022-10-03T01:30:21;102297.44;;;23.79;49.75
73245;BME280;61460;41.158;-73.238;2022-10-03T01:32:58;102290.73;;;23.94;49.22
73245;BME280;61460;41.158;-73.238;2022-10-03T01:35:27;102298.94;;;23.86;49.39
73245;BME280;61460;41.158;-73.238;2022-10-03T01:38:00;102309.42;;;23.87;49.25
73245;BME280;61460;41.158;-73.238;2022-10-03T01:40:27;102293.11;;;23.87;49.28
73245;BME280;61460;41.158;-73.238;2022-10-03T01:43:00;102293.21;;;23.82;49.47
73245;BME280;61460;41.158;-73.238;2022-10-03T01:45:30;102286.02;;;23.77;49.60
73245;BME280;61460;41.158;-73.238;2022-10-03T01:48:00;102287.37;;;23.78;49.63
73245;BME280;61460;41.158;-73.238;2022-10-03T01:50:31;102294.67;;;23.85;49.47
73245;BME280;61460;41.158;-73.238;2022-10-03T01:53:02;102292.81;;;23.67;49.96
73245;BME280;61460;41.158;-73.238;2022-10-03T01:55:35;102293.14;;;23.65;50.20
73245;BME280;61460;41.158;-73.238;2022-10-03T01:58:02;102292.61;;;23.71;50.00
73245;BME280;61460;41.158;-73.238;2022-10-03T02:00:32;102299.16;;;23.66;50.03
73245;BME280;61460;41.158;-73.238;2022-10-03T02:03:05;102298.71;;;23.63;50.22
73245;BME280;61460;41.158;-73.238;2022-10-03T02:05:37;102292.39;;;23.84;49.69
73245;BME280;61460;41.158;-73.238;2022-10-03T02:08:03;102292.24;;;23.64;50.05
73245;BME280;61460;41.158;-73.238;2022-10-03T02:10:39;102294.57;;;23.56;50.32
73245;BME280;61460;41.158;-73.238;2022-10-03T02:13:08;102299.73;;;23.78;49.66
73245;BME280;61460;41.158;-73.238;2022-10-03T02:15:41;102303.29;;;23.72;49.79
73245;BME280;61460;41.158;-73.238;2022-10-03T02:18:10;102308.23;;;23.67;49.75
73245;BME280;61460;41.158;-73.238;2022-10-03T02:20:39;102304.58;;;23.55;50.16
73245;BME280;61460;41.158;-73.238;2022-10-03T02:25:50;102300.86;;;23.73;49.53
73245;BME280;61460;41.158;-73.238;2022-10-03T02:28:13;102302.95;;;23.82;49.31
73245;BME280;61460;41.158;-73.238;2022-10-03T02:30:45;102308.31;;;23.34;49.86
73245;BME280;61460;41.158;-73.238;2022-10-03T02:40:48;102288.80;;;22.80;47.91
73245;BME280;61460;41.158;-73.238;2022-10-03T02:43:24;102277.92;;;22.92;46.73
73245;BME280;61460;41.158;-73.238;2022-10-03T02:50:49;102255.21;;;22.45;47.46
73245;BME280;61460;41.158;-73.238;2022-10-03T03:13:32;102216.09;;;21.75;45.23
73245;BME280;61460;41.158;-73.238;2022-10-03T03:18:23;102206.95;;;21.98;44.02
73245;BME280;61460;41.158;-73.238;2022-10-03T03:20:57;102210.91;;;22.03;44.19
73245;BME280;61460;41.158;-73.238;2022-10-03T03:23:32;102211.64;;;21.87;43.95
73245;BME280;61460;41.158;-73.238;2022-10-03T03:26:01;102213.68;;;21.83;43.29
73245;BME280;61460;41.158;-73.238;2022-10-03T03:28:28;102212.23;;;21.80;43.81
73245;BME280;61460;41.158;-73.238;2022-10-03T03:31:02;102221.90;;;22.04;43.77
73245;BME280;61460;41.158;-73.238;2022-10-03T03:33:30;102233.87;;;21.54;44.94
73245;BME280;61460;41.158;-73.238;2022-10-03T03:36:02;102220.12;;;21.64;44.46
73245;BME280;61460;41.158;-73.238;2022-10-03T03:38:34;102216.63;;;21.66;44.89
73245;BME280;61460;41.158;-73.238;2022-10-03T03:41:08;102213.42;;;21.74;45.10
73245;BME280;61460;41.158;-73.238;2022-10-03T03:58:38;102206.43;;;21.55;45.11
73245;BME280;61460;41.158;-73.238;2022-10-03T04:01:12;102205.72;;;21.46;45.34
73245;BME280;61460;41.158;-73.238;2022-10-03T04:03:43;102198.96;;;21.58;44.68
73245;BME280;61460;41.158;-73.238;2022-10-03T04:06:10;102193.03;;;21.53;44.53
73245;BME280;61460;41.158;-73.238;2022-10-03T04:18:45;102229.80;;;20.75;46.22
73245;BME280;61460;41.158;-73.238;2022-10-03T04:31:19;102237.29;;;21.10;44.86
73245;BME280;61460;41.158;-73.238;2022-10-03T04:33:50;102244.08;;;21.02;45.12
73245;BME280;61460;41.158;-73.238;2022-10-03T04:38:48;102242.43;;;20.99;45.31
73245;BME280;61460;41.158;-73.238;2022-10-03T04:41:18;102241.79;;;21.03;45.52
73245;BME280;61460;41.158;-73.238;2022-10-03T04:43:47;102242.64;;;20.90;45.54
73245;BME280;61460;41.158;-73.238;2022-10-03T04:48:49;102242.57;;;20.99;46.08
73245;BME280;61460;41.158;-73.238;2022-10-03T04:51:23;102247.14;;;20.80;46.21
73245;BME280;61460;41.158;-73.238;2022-10-03T04:53:46;102253.90;;;21.02;45.70
73245;BME280;61460;41.158;-73.238;2022-10-03T04:56:19;102249.39;;;20.85;46.27
73245;BME280;61460;41.158;-73.238;2022-10-03T04:58:45;102249.94;;;20.83;45.42
73245;BME280;61460;41.158;-73.238;2022-10-03T05:01:16;102249.70;;;21.03;45.38
73245;BME280;61460;41.158;-73.238;2022-10-03T05:03:51;102257.17;;;21.08;45.48
73245;BME280;61460;41.158;-73.238;2022-10-03T05:06:21;102254.83;;;21.20;45.24
73245;BME280;61460;41.158;-73.238;2022-10-03T05:08:50;102254.79;;;21.39;44.86
73245;BME280;61460;41.158;-73.238;2022-10-03T05:11:21;102248.02;;;21.20;45.20
73245;BME280;61460;41.158;-73.238;2022-10-03T05:13:56;102253.85;;;21.10;45.92
73245;BME280;61460;41.158;-73.238;2022-10-03T05:16:19;102247.38;;;20.90;46.16
73245;BME280;61460;41.158;-73.238;2022-10-03T05:18:48;102246.74;;;21.03;45.26
73245;BME280;61460;41.158;-73.238;2022-10-03T05:21:23;102236.75;;;21.08;44.67
73245;BME280;61460;41.158;-73.238;2022-10-03T05:23:54;102233.89;;;20.60;46.18
73245;BME280;61460;41.158;-73.238;2022-10-03T05:26:22;102238.85;;;20.55;46.14
73245;BME280;61460;41.158;-73.238;2022-10-03T05:28:52;102237.51;;;20.56;46.29
73245;BME280;61460;41.158;-73.238;2022-10-03T05:31:25;102242.54;;;20.67;45.86
73245;BME280;61460;41.158;-73.238;2022-10-03T05:33:56;102240.73;;;20.80;45.93
73245;BME280;61460;41.158;-73.238;2022-10-03T05:36:27;102243.34;;;20.74;45.94
73245;BME280;61460;41.158;-73.238;2022-10-03T05:41:25;102236.53;;;20.48;46.51
73245;BME280;61460;41.158;-73.238;2022-10-03T05:44:00;102233.51;;;20.57;46.20
73245;BME280;61460;41.158;-73.238;2022-10-03T05:46:37;102236.57;;;20.35;47.02
73245;BME280;61460;41.158;-73.238;2022-10-03T05:49:00;102229.94;;;20.48;47.08
73245;BME280;61460;41.158;-73.238;2022-10-03T05:56:37;102230.37;;;20.78;46.60
73245;BME280;61460;41.158;-73.238;2022-10-03T06:04:05;102230.84;;;20.36;47.52
73245;BME280;61460;41.158;-73.238;2022-10-03T06:06:37;102233.25;;;20.72;46.11
73245;BME280;61460;41.158;-73.238;2022-10-03T06:16:36;102224.26;;;20.71;46.20
73245;BME280;61460;41.158;-73.238;2022-10-03T06:19:09;102214.72;;;20.49;47.36
73245;BME280;61460;41.158;-73.238;2022-10-03T06:29:16;102228.01;;;20.56;47.74
73245;BME280;61460;41.158;-73.238;2022-10-03T06:34:20;102209.87;;;20.51;48.05
73245;BME280;61460;41.158;-73.238;2022-10-03T06:44:19;102234.31;;;20.66;48.01
73245;BME280;61460;41.158;-73.238;2022-10-03T06:46:45;102230.66;;;20.73;47.87
73245;BME280;61460;41.158;-73.238;2022-10-03T06:51:47;102224.19;;;20.72;47.85
73245;BME280;61460;41.158;-73.238;2022-10-03T06:54:18;102215.68;;;20.56;48.41
73245;BME280;61460;41.158;-73.238;2022-10-03T06:56:53;102206.23;;;20.49;48.80
73245;BME280;61460;41.158;-73.238;2022-10-03T07:01:52;102217.10;;;20.39;49.37
73245;BME280;61460;41.158;-73.238;2022-10-03T07:16:53;102221.37;;;20.77;48.44
73245;BME280;61460;41.158;-73.238;2022-10-03T07:19:23;102215.72;;;20.79;48.50
73245;BME280;61460;41.158;-73.238;2022-10-03T07:24:29;102201.18;;;20.92;48.03
73245;BME280;61460;41.158;-73.238;2022-10-03T07:26:55;102193.68;;;20.44;49.21
73245;BME280;61460;41.158;-73.238;2022-10-03T07:29:25;102181.86;;;20.50;49.33
73245;BME280;61460;41.158;-73.238;2022-10-03T07:31:57;102172.14;;;20.56;48.91
73245;BME280;61460;41.158;-73.238;2022-10-03T07:37:03;102156.69;;;20.61;48.65
73245;BME280;61460;41.158;-73.238;2022-10-03T07:39:28;102153.90;;;20.54;48.69
73245;BME280;61460;41.158;-73.238;2022-10-03T07:41:57;102145.97;;;20.83;48.10
73245;BME280;61460;41.158;-73.238;2022-10-03T07:47:03;102140.98;;;21.20;46.67
73245;BME280;61460;41.158;-73.238;2022-10-03T07:49:33;102136.67;;;20.59;48.47
73245;BME280;61460;41.158;-73.238;2022-10-03T07:52:09;102138.61;;;20.66;48.52
73245;BME280;61460;41.158;-73.238;2022-10-03T07:54:38;102140.04;;;20.78;48.40
73245;BME280;61460;41.158;-73.238;2022-10-03T07:57:04;102135.88;;;20.73;48.43
73245;BME280;61460;41.158;-73.238;2022-10-03T08:02:06;102155.38;;;20.50;48.83
73245;BME280;61460;41.158;-73.238;2022-10-03T08:04:35;102159.14;;;20.52;48.60
73245;BME280;61460;41.158;-73.238;2022-10-03T08:07:10;102179.02;;;20.40;48.76
73245;BME280;61460;41.158;-73.238;2022-10-03T08:09:37;102183.46;;;20.86;47.20
73245;BME280;61460;41.158;-73.238;2022-10-03T08:12:07;102188.43;;;20.58;48.20
73245;BME280;61460;41.158;-73.238;2022-10-03T08:14:35;102190.28;;;20.65;47.79
73245;BME280;61460;41.158;-73.238;2022-10-03T08:19:43;102206.75;;;20.23;48.44
73245;BME280;61460;41.158;-73.238;2022-10-03T08:22:06;102220.84;;;19.90;49.34
73245;BME280;61460;41.158;-73.238;2022-10-03T08:24:41;102222.32;;;20.38;48.45
73245;BME280;61460;41.158;-73.238;2022-10-03T08:29:43;102218.60;;;20.56;48.02
73245;BME280;61460;41.158;-73.238;2022-10-03T08:34:43;102220.16;;;20.29;48.85
73245;BME280;61460;41.158;-73.238;2022-10-03T08:37:17;102225.02;;;20.47;48.30
73245;BME280;61460;41.158;-73.238;2022-10-03T08:42:18;102236.01;;;20.60;47.56
73245;BME280;61460;41.158;-73.238;2022-10-03T08:44:44;102250.45;;;20.40;48.37
73245;BME280;61460;41.158;-73.238;2022-10-03T08:52:21;102273.95;;;20.41;47.80
73245;BME280;61460;41.158;-73.238;2022-10-03T08:54:51;102271.91;;;20.43;47.43
73245;BME280;61460;41.158;-73.238;2022-10-03T08:57:21;102272.81;;;20.23;48.19
73245;BME280;61460;41.158;-73.238;2022-10-03T09:04:54;102281.96;;;20.29;47.71
73245;BME280;61460;41.158;-73.238;2022-10-03T09:07:23;102277.34;;;20.23;48.17
73245;BME280;61460;41.158;-73.238;2022-10-03T09:12:22;102271.31;;;20.34;47.34
73245;BME280;61460;41.158;-73.238;2022-10-03T09:17:24;102272.26;;;19.93;48.73
73245;BME280;61460;41.158;-73.238;2022-10-03T09:22:26;102268.39;;;20.32;47.80
73245;BME280;61460;41.158;-73.238;2022-10-03T09:27:26;102269.12;;;20.02;48.93
73245;BME280;61460;41.158;-73.238;2022-10-03T09:37:30;102254.33;;;19.85;49.99
73245;BME280;61460;41.158;-73.238;2022-10-03T09:47:39;102257.11;;;20.63;48.05
73245;BME280;61460;41.158;-73.238;2022-10-03T09:52:34;102243.08;;;20.01;49.94
73245;BME280;61460;41.158;-73.238;2022-10-03T10:02:36;102251.05;;;20.20;48.87
73245;BME280;61460;41.158;-73.238;2022-10-03T10:07:40;102252.60;;;20.45;48.63
73245;BME280;61460;41.158;-73.238;2022-10-03T10:20:09;102248.37;;;20.65;48.02
73245;BME280;61460;41.158;-73.238;2022-10-03T10:30:13;102254.70;;;20.02;49.57
73245;BME280;61460;41.158;-73.238;2022-10-03T10:35:15;102256.41;;;20.09;49.41
73245;BME280;61460;41.158;-73.238;2022-10-03T10:45:14;102260.19;;;20.22;49.67
73245;BME280;61460;41.158;-73.238;2022-10-03T10:47:49;102271.90;;;19.93;50.83
73245;BME280;61460;41.158;-73.238;2022-10-03T11:00:18;102313.96;;;20.10;51.35
73245;BME280;61460;41.158;-73.238;2022-10-03T11:35:33;102369.87;;;19.76;53.89
73245;BME280;61460;41.158;-73.238;2022-10-03T11:37:51;102373.72;;;19.67;54.57
73245;BME280;61460;41.158;-73.238;2022-10-03T11:40:29;102365.52;;;19.54;55.26
73245;BME280;61460;41.158;-73.238;2022-10-03T11:42:57;102363.87;;;19.29;56.09
73245;BME280;61460;41.158;-73.238;2022-10-03T11:45:25;102361.64;;;19.72;55.73
73245;BME280;61460;41.158;-73.238;2022-10-03T11:47:56;102357.22;;;19.77;56.12
73245;BME280;61460;41.158;-73.238;2022-10-03T11:50:30;102344.12;;;19.71;56.37
73245;BME280;61460;41.158;-73.238;2022-10-03T11:55:30;102346.45;;;19.72;56.14
73245;BME280;61460;41.158;-73.238;2022-10-03T11:58:04;102352.44;;;19.71;56.07
73245;BME280;61460;41.158;-73.238;2022-10-03T12:00:25;102336.11;;;19.67;56.10
73245;BME280;61460;41.158;-73.238;2022-10-03T12:03:09;102347.70;;;19.57;56.38
73245;BME280;61460;41.158;-73.238;2022-10-03T12:05:36;102352.59;;;19.57;56.42
73245;BME280;61460;41.158;-73.238;2022-10-03T12:08:09;102343.97;;;19.71;56.01
73245;BME280;61460;41.158;-73.238;2022-10-03T12:10:34;102349.44;;;19.64;56.21
73245;BME280;61460;41.158;-73.238;2022-10-03T12:12:58;102362.49;;;19.57;56.35
73245;BME280;61460;41.158;-73.238;2022-10-03T12:15:33;102361.14;;;19.63;56.09
73245;BME280;61460;41.158;-73.238;2022-10-03T12:18:04;102364.13;;;19.61;56.15
73245;BME280;61460;41.158;-73.238;2022-10-03T12:20:33;102369.72;;;19.60;56.19
73245;BME280;61460;41.158;-73.238;2022-10-03T12:23:05;102372.76;;;19.59;56.21
73245;BME280;61460;41.158;-73.238;2022-10-03T12:25:32;102369.51;;;19.65;56.02
73245;BME280;61460;41.158;-73.238;2022-10-03T12:28:08;102376.24;;;19.60;56.16
73245;BME280;61460;41.158;-73.238;2022-10-03T12:30:37;102373.87;;;19.52;56.29
73245;BME280;61460;41.158;-73.238;2022-10-03T12:33:13;102366.68;;;19.52;56.37
73245;BME280;61460;41.158;-73.238;2022-10-03T12:35:39;102368.10;;;19.57;56.17
73245;BME280;61460;41.158;-73.238;2022-10-03T12:38:16;102362.98;;;19.59;56.08
73245;BME280;61460;41.158;-73.238;2022-10-03T12:40:37;102363.34;;;19.58;56.11
73245;BME280;61460;41.158;-73.238;2022-10-03T12:43:14;102357.80;;;19.59;56.06
73245;BME280;61460;41.158;-73.238;2022-10-03T12:45:39;102351.58;;;19.58;56.10
73245;BME280;61460;41.158;-73.238;2022-10-03T12:48:22;102343.36;;;19.56;56.09
73245;BME280;61460;41.158;-73.238;2022-10-03T12:50:42;102344.06;;;19.47;56.36
73245;BME280;61460;41.158;-73.238;2022-10-03T12:55:42;102340.81;;;19.55;56.18
73245;BME280;61460;41.158;-73.238;2022-10-03T12:58:14;102342.94;;;19.57;56.12
73245;BME280;61460;41.158;-73.238;2022-10-03T13:00:47;102331.00;;;19.57;56.13
73245;BME280;61460;41.158;-73.238;2022-10-03T13:03:18;102329.53;;;19.52;56.24
73245;BME280;61460;41.158;-73.238;2022-10-03T13:05:52;102344.34;;;19.59;56.08
73245;BME280;61460;41.158;-73.238;2022-10-03T13:08:23;102352.75;;;19.62;55.97
73245;BME280;61460;41.158;-73.238;2022-10-03T13:10:43;102365.50;;;19.51;56.26
73245;BME280;61460;41.158;-73.238;2022-10-03T13:13:22;102372.14;;;19.54;56.15
73245;BME280;61460;41.158;-73.238;2022-10-03T13:15:52;102385.31;;;19.56;56.10
73245;BME280;61460;41.158;-73.238;2022-10-03T13:20:50;102379.65;;;19.49;56.36
73245;BME280;61460;41.158;-73.238;2022-10-03T13:23:20;102377.81;;;19.52;56.20
73245;BME280;61460;41.158;-73.238;2022-10-03T13:25:51;102375.64;;;19.47;56.24
73245;BME280;61460;41.158;-73.238;2022-10-03T13:28:19;102361.96;;;19.55;56.06
73245;BME280;61460;41.158;-73.238;2022-10-03T13:30:50;102357.93;;;19.52;56.12
73245;BME280;61460;41.158;-73.238;2022-10-03T13:33:19;102347.30;;;19.53;56.13
73245;BME280;61460;41.158;-73.238;2022-10-03T13:35:50;102352.52;;;19.50;56.24
73245;BME280;61460;41.158;-73.238;2022-10-03T13:40:55;102336.00;;;19.53;56.08
73245;BME280;61460;41.158;-73.238;2022-10-03T13:43:22;102342.67;;;19.55;56.03
73245;BME280;61460;41.158;-73.238;2022-10-03T13:45:50;102350.94;;;19.50;56.18
73245;BME280;61460;41.158;-73.238;2022-10-03T13:48:22;102377.88;;;19.52;56.15
73245;BME280;61460;41.158;-73.238;2022-10-03T13:50:54;102382.43;;;19.47;56.29
73245;BME280;61460;41.158;-73.238;2022-10-03T13:55:53;102379.13;;;19.52;56.15
73245;BME280;61460;41.158;-73.238;2022-10-03T13:58:34;102393.33;;;19.50;56.19
73245;BME280;61460;41.158;-73.238;2022-10-03T14:01:06;102396.79;;;19.48;56.23
73245;BME280;61460;41.158;-73.238;2022-10-03T14:03:30;102404.95;;;19.46;56.27
73245;BME280;61460;41.158;-73.238;2022-10-03T14:06:04;102407.94;;;19.43;56.33
73245;BME280;61460;41.158;-73.238;2022-10-03T14:11:07;102429.91;;;19.43;56.27
73245;BME280;61460;41.158;-73.238;2022-10-03T14:13:31;102440.18;;;19.51;56.08
73245;BME280;61460;41.158;-73.238;2022-10-03T14:16:02;102444.20;;;19.46;56.17
73245;BME280;61460;41.158;-73.238;2022-10-03T14:18:38;102454.74;;;19.23;56.76
73245;BME280;61460;41.158;-73.238;2022-10-03T14:23:32;102462.26;;;19.49;56.06
73245;BME280;61460;41.158;-73.238;2022-10-03T14:26:04;102465.65;;;19.48;56.05
73245;BME280;61460;41.158;-73.238;2022-10-03T14:28:35;102479.16;;;19.49;55.99
73245;BME280;61460;41.158;-73.238;2022-10-03T14:31:07;102475.98;;;19.49;56.02
73245;BME280;61460;41.158;-73.238;2022-10-03T14:33:37;102478.53;;;19.44;56.16
73245;BME280;61460;41.158;-73.238;2022-10-03T14:38:46;102475.25;;;19.45;56.07
73245;BME280;61460;41.158;-73.238;2022-10-03T14:41:05;102473.09;;;19.45;56.07
73245;BME280;61460;41.158;-73.238;2022-10-03T14:43:37;102472.47;;;19.45;56.12
73245;BME280;61460;41.158;-73.238;2022-10-03T14:46:05;102461.91;;;19.41;56.18
73245;BME280;61460;41.158;-73.238;2022-10-03T14:48:37;102451.72;;;19.42;56.14
73245;BME280;61460;41.158;-73.238;2022-10-03T14:51:11;102440.50;;;19.40;56.22
73245;BME280;61460;41.158;-73.238;2022-10-03T14:53:36;102429.77;;;19.45;56.13
73245;BME280;61460;41.158;-73.238;2022-10-03T14:56:08;102421.75;;;19.44;56.17
73245;BME280;61460;41.158;-73.238;2022-10-03T14:58:43;102421.31;;;19.37;56.39
73245;BME280;61460;41.158;-73.238;2022-10-03T15:01:13;102411.34;;;19.39;56.32
73245;BME280;61460;41.158;-73.238;2022-10-03T15:03:42;102418.61;;;19.35;56.40
73245;BME280;61460;41.158;-73.238;2022-10-03T15:06:18;102422.21;;;19.37;56.40
73245;BME280;61460;41.158;-73.238;2022-10-03T15:08:43;102408.93;;;19.34;56.45
73245;BME280;61460;41.158;-73.238;2022-10-03T15:11:13;102405.94;;;19.38;56.36
73245;BME280;61460;41.158;-73.238;2022-10-03T15:13:45;102395.86;;;19.39;56.32
73245;BME280;61460;41.158;-73.238;2022-10-03T15:16:15;102396.09;;;19.38;56.29
73245;BME280;61460;41.158;-73.238;2022-10-03T15:18:50;102399.23;;;19.35;56.36
73245;BME280;61460;41.158;-73.238;2022-10-03T15:21:14;102407.91;;;19.35;56.40
73245;BME280;61460;41.158;-73.238;2022-10-03T15:23:45;102397.51;;;19.28;56.55
73245;BME280;61460;41.158;-73.238;2022-10-03T15:26:18;102397.63;;;19.41;56.28
73245;BME280;61460;41.158;-73.238;2022-10-03T15:28:47;102400.76;;;19.42;56.19
73245;BME280;61460;41.158;-73.238;2022-10-03T15:31:25;102403.99;;;19.35;56.38
73245;BME280;61460;41.158;-73.238;2022-10-03T15:33:50;102406.13;;;19.29;56.50
73245;BME280;61460;41.158;-73.238;2022-10-03T15:36:21;102411.26;;;19.27;56.50
73245;BME280;61460;41.158;-73.238;2022-10-03T15:38:50;102411.31;;;19.36;56.36
73245;BME280;61460;41.158;-73.238;2022-10-03T15:41:21;102409.37;;;19.39;56.28
73245;BME280;61460;41.158;-73.238;2022-10-03T15:43:54;102406.57;;;19.41;56.22
73245;BME280;61460;41.158;-73.238;2022-10-03T15:46:28;102402.37;;;19.37;56.28
73245;BME280;61460;41.158;-73.238;2022-10-03T15:48:52;102398.23;;;19.34;56.37
73245;BME280;61460;41.158;-73.238;2022-10-03T15:51:24;102398.75;;;19.40;56.19
73245;BME280;61460;41.158;-73.238;2022-10-03T15:53:54;102392.22;;;19.40;56.16
73245;BME280;61460;41.158;-73.238;2022-10-03T15:56:24;102387.57;;;19.40;56.20
73245;BME280;61460;41.158;-73.238;2022-10-03T15:58:53;102379.76;;;19.30;56.44
73245;BME280;61460;41.158;-73.238;2022-10-03T16:01:26;102367.45;;;19.32;56.41
73245;BME280;61460;41.158;-73.238;2022-10-03T16:03:58;102364.00;;;19.33;56.38
73245;BME280;61460;41.158;-73.238;2022-10-03T16:06:27;102367.10;;;19.37;56.29
73245;BME280;61460;41.158;-73.238;2022-10-03T16:08:59;102354.86;;;19.30;56.51
73245;BME280;61460;41.158;-73.238;2022-10-03T16:11:28;102349.15;;;19.35;56.31
73245;BME280;61460;41.158;-73.238;2022-10-03T16:14:09;102348.32;;;19.39;56.28
73245;BME280;61460;41.158;-73.238;2022-10-03T16:16:32;102337.48;;;19.30;56.46
73245;BME280;61460;41.158;-73.238;2022-10-03T16:19:18;102339.44;;;19.31;56.50
73245;BME280;61460;41.158;-73.238;2022-10-03T16:21:39;102322.94;;;19.29;56.51
73245;BME280;61460;41.158;-73.238;2022-10-03T16:24:00;102322.57;;;19.35;56.43
73245;BME280;61460;41.158;-73.238;2022-10-03T16:26:32;102313.17;;;19.33;56.46
73245;BME280;61460;41.158;-73.238;2022-10-03T16:29:06;102305.66;;;19.30;56.51
73245;BME280;61460;41.158;-73.238;2022-10-03T16:31:34;102300.82;;;19.29;56.52
73245;BME280;61460;41.158;-73.238;2022-10-03T16:34:04;102299.31;;;19.30;56.48
73245;BME280;61460;41.158;-73.238;2022-10-03T16:36:40;102291.60;;;19.35;56.41
73245;BME280;61460;41.158;-73.238;2022-10-03T16:39:03;102291.12;;;19.29;56.54
73245;BME280;61460;41.158;-73.238;2022-10-03T16:41:34;102290.10;;;19.26;56.63
73245;BME280;61460;41.158;-73.238;2022-10-03T16:44:05;102298.06;;;19.29;56.54
73245;BME280;61460;41.158;-73.238;2022-10-03T16:46:37;102303.19;;;19.25;56.68
73245;BME280;61460;41.158;-73.238;2022-10-03T16:49:11;102301.20;;;19.27;56.64
73245;BME280;61460;41.158;-73.238;2022-10-03T16:51:38;102315.05;;;19.26;56.58
73245;BME280;61460;41.158;-73.238;2022-10-03T16:54:10;102320.58;;;19.29;56.54
73245;BME280;61460;41.158;-73.238;2022-10-03T16:56:39;102335.83;;;19.28;56.59
73245;BME280;61460;41.158;-73.238;2022-10-03T16:59:12;102334.36;;;19.27;56.66
73245;BME280;61460;41.158;-73.238;2022-10-03T17:01:41;102335.34;;;19.25;56.74
73245;BME280;61460;41.158;-73.238;2022-10-03T17:04:14;102331.03;;;19.31;56.51
73245;BME280;61460;41.158;-73.238;2022-10-03T17:06:39;102337.69;;;19.31;56.55
73245;BME280;61460;41.158;-73.238;2022-10-03T17:09:19;102343.43;;;19.27;56.64
73245;BME280;61460;41.158;-73.238;2022-10-03T17:11:41;102335.96;;;19.27;56.63
73245;BME280;61460;41.158;-73.238;2022-10-03T17:14:11;102346.69;;;19.28;56.58
73245;BME280;61460;41.158;-73.238;2022-10-03T17:16:47;102348.96;;;19.24;56.73
73245;BME280;61460;41.158;-73.238;2022-10-03T17:19:18;102350.00;;;19.29;56.57
73245;BME280;61460;41.158;-73.238;2022-10-03T17:21:46;102347.09;;;19.29;56.53
73245;BME280;61460;41.158;-73.238;2022-10-03T17:24:18;102348.03;;;19.26;56.62
73245;BME280;61460;41.158;-73.238;2022-10-03T17:26:45;102345.47;;;19.28;56.55
73245;BME280;61460;41.158;-73.238;2022-10-03T17:29:17;102350.43;;;19.28;56.47
73245;BME280;61460;41.158;-73.238;2022-10-03T17:31:48;102349.75;;;19.30;56.47
73245;BME280;61460;41.158;-73.238;2022-10-03T17:34:18;102351.33;;;19.31;56.46
73245;BME280;61460;41.158;-73.238;2022-10-03T17:36:57;102354.94;;;19.29;56.51
73245;BME280;61460;41.158;-73.238;2022-10-03T17:41:51;102353.58;;;19.26;56.59
73245;BME280;61460;41.158;-73.238;2022-10-03T17:44:27;102355.77;;;19.27;56.61
73245;BME280;61460;41.158;-73.238;2022-10-03T17:46:56;102359.43;;;19.31;56.55
73245;BME280;61460;41.158;-73.238;2022-10-03T17:49:26;102374.53;;;19.28;56.61
73245;BME280;61460;41.158;-73.238;2022-10-03T17:51:50;102379.88;;;19.26;56.66
73245;BME280;61460;41.158;-73.238;2022-10-03T17:54:25;102382.15;;;19.30;56.56
73245;BME280;61460;41.158;-73.238;2022-10-03T17:56:53;102378.14;;;19.36;56.45